x

Southern Lake Huron (45149) Wave Buoy

3:00pm - Fri 30th Sep 2016 All times are CDT. -5 hours from GMT.

  • Sig Wave height 2.0ft
  • Peak Period 3s
  • Wind
    16mph, 20mph gusts
  • Air Temp 67°f
  • Sea Pressure 1021.2mb
  • Southern Lake Huron
  • Southern Lake Huron

More Historic Weather Station data

Upgrade to MSW Pro to gain access to the past 30 days of data for over 8000 Wavebouys and Weather Stations around the globe.

Join Pro

Comparision Forecast

View Surf forecast
   
Fri 09/30 3:00pm 2ft 3s 16 20 mph 1021.2mb 67f
2:00pm 2.5ft 4s 16 18 mph 1021.6mb 67f
1:00pm 2ft 4s 18 20 mph 1022.3mb 66f
12:00pm 2.5ft 4s 11 13 mph 1023.2mb 65f
6:00am 3ft 4s 20 22 mph 1024.2mb 62f
5:00am 3.5ft 4s 18 22 mph 1024mb 62f
3:00am 3.5ft 4s 20 25 mph 1023.8mb 62f
2:00am  -   -  22
mph
- 62f
12:00am 3.5ft 5s 22 29 mph 1024.6mb 62f
Thu 09/29 10:00pm 4ft 4s 27 31 mph 1025.4mb 61f
9:00pm 4ft 4s 25 29 mph 1025.1mb 61f
7:00pm 4ft 4s 25 29 mph 1025.1mb 62f
6:00pm 3.5ft 4s 22 27 mph 1025.3mb 61f
5:00pm 3.5ft 4s 22 27 mph 1024.8mb 62f
4:00pm 3.5ft 4s 20 25 mph 1024.5mb 61f
3:00pm 3.5ft 4s 20 22 mph 1024.3mb 62f
1:00pm 3.5ft 4s 20 25 mph 1024.1mb 63f
11:00am 4.5ft 4s 22 27 mph 1024.3mb 61f
10:00am 4.5ft 4s 25 29 mph 1024.1mb 62f
9:00am 4.5ft 5s 25 31 mph 1023.4mb 62f
8:00am 4.5ft 5s 27 31 mph 1023mb 62f
6:00am 4.5ft 5s 25 31 mph 1021.5mb 63f
3:00am 4ft 5s 25 31 mph 1019.9mb 63f
1:00am 4.5ft 5s 25 29 mph 1019.4mb 65f
12:00am 4.5ft 5s 27 34 mph 1019mb 65f
Wed 09/28 11:00pm 3.5ft 4s 27 31 mph 1018.7mb 66f
10:00pm 3.5ft 4s 25 29 mph 1018.6mb 66f
9:00pm 2.5ft 4s 25 29 mph 1018.2mb 66f
8:00pm 2.5ft 4s 22 27 mph 1017.9mb 67f
7:00pm 2.5ft 4s 18 22 mph 1017.6mb 66f
5:00pm 2ft 4s 22 27 mph 1016.3mb 66f
4:00pm 1ft 3s 7 9 mph 1015.5mb 68f
3:00pm 1.3ft 3s 2 4 mph 1015.1mb 68f
2:00pm 1.6ft 3s 4
mph
1014.6mb 67f
1:00pm 1.3ft 3s 16 18 mph 1014.1mb 68f
12:00pm 1.3ft 3s 7 9 mph 1013.8mb 68f
10:00am 2ft 3s 13 16 mph 1013.5mb 64f
9:00am 1.6ft 4s 11 13 mph 1013.2mb 62f
8:00am 1ft 3s 13
mph
1012.4mb 62f
7:00am 1ft 2s 9 13 mph 1012.1mb 61f
6:00am 1ft 15s 11 13 mph 1011.6mb 61f
4:00am 1ft 3s 7 9 mph 1011.2mb 63f
3:00am 1.3ft 2s 9 13 mph 1011mb 63f
2:00am 0.7ft 2s 11 13 mph 1011mb 63f
1:00am 1ft 2s 4
mph
1010.7mb 63f
12:00am 1ft 3s 11 13 mph 1010.7mb 63f
Tue 09/27 11:00pm 1.3ft 3s 9 11 mph 1010.1mb 62f
10:00pm 2ft 3s 9 13 mph 1009.6mb 62f
9:00pm 2ft 4s 13 18 mph 1009.2mb 62f
8:00pm 2ft 3s 16 20 mph 1008.9mb 63f
7:00pm 2.5ft 4s 16 18 mph 1008.5mb 63f
6:00pm 2.5ft 4s 18 25 mph 1007.6mb 64f
4:00pm 3.5ft 5s 16 20 mph 1006.2mb 65f
2:00pm 3.5ft 4s 22 27 mph 1005.5mb 65f
1:00pm 3.5ft 4s 22 27 mph 1005.3mb 65f
12:00pm 3.5ft 5s 20 22 mph 1005.6mb 64f
10:00am 4ft 5s 20 22 mph 1006.5mb 62f
8:00am 4ft 5s 25 31 mph 1006.6mb 62f
7:00am 3.5ft 5s 22 27 mph 1007mb 61f
5:00am 4.5ft 5s 20 25 mph 1007.6mb 62f
2:00am 4.5ft 5s 22 27 mph 1008.9mb 63f
1:00am 4.5ft 4s 25 31 mph 1009.2mb 63f
12:00am 4.5ft 5s 22 29 mph 1009.7mb 60f
Mon 09/26 10:00pm 4ft 5s 25 31 mph 1010.7mb 64f